Time;durP1;ratioP1;P1;durP2;ratioP2;P2;SDS_P1;SDS_P2;PMS_P1;PMS_P2;Temp;Humidity;BMP_temperature;BMP_pressure;BME280_temperature;BME280_humidity;BME280_pressure;Samples;Min_cycle;Max_cycle;Signal;HPM_P1;HPM_P2
2021/03/20 00:02:41;;;;;;;9.90;6.20;;;;;;;;;;5073018;28;20207;-52
2021/03/20 00:05:12;;;;;;;9.50;6.88;;;;;;;;;;5096014;28;20239;-50
2021/03/20 00:07:39;;;;;;;11.48;6.43;;;;;;;;;;5114556;28;20201;-51
2021/03/20 00:10:33;;;;;;;10.38;6.50;;;;;;;;;;5116220;28;20185;-55
2021/03/20 00:13:00;;;;;;;9.15;6.60;;;;;;;;;;5095437;28;20259;-54
2021/03/20 00:15:27;;;;;;;9.48;6.65;;;;;;;;;;5095358;28;20272;-50
2021/03/20 00:17:57;;;;;;;8.73;6.35;;;;;;;;;;5095984;28;20186;-53
2021/03/20 00:20:26;;;;;;;10.48;6.72;;;;;;;;;;5095209;28;20325;-56
2021/03/20 00:22:53;;;;;;;10.00;5.68;;;;;;;;;;5095134;28;20194;-51
2021/03/20 00:25:23;;;;;;;10.93;6.68;;;;;;;;;;5077560;28;20232;-54
2021/03/20 00:27:50;;;;;;;10.85;6.32;;;;;;;;;;5094935;28;20213;-49
2021/03/20 00:30:18;;;;;;;10.02;7.30;;;;;;;;;;5078222;28;20206;-53
2021/03/20 00:32:55;;;;;;;9.55;6.90;;;;;;;;;;5090809;28;20213;-51
2021/03/20 00:35:24;;;;;;;8.38;6.47;;;;;;;;;;5095357;28;20200;-53
2021/03/20 00:37:52;;;;;;;10.65;6.38;;;;;;;;;;5095365;28;20194;-55
2021/03/20 00:40:38;;;;;;;8.18;5.30;;;;;;;;;;5095296;28;20212;-56
2021/03/20 00:43:05;;;;;;;7.63;5.85;;;;;;;;;;5095686;28;20235;-51
2021/03/20 00:45:33;;;;;;;8.88;5.85;;;;;;;;;;5095356;28;20234;-54
2021/03/20 00:48:16;;;;;;;9.23;6.38;;;;;;;;;;5095562;28;20205;-51
2021/03/20 00:50:43;;;;;;;7.90;6.30;;;;;;;;;;5094526;28;20623;-54
2021/03/20 00:53:11;;;;;;;8.35;7.07;;;;;;;;;;5077276;28;20262;-47
2021/03/20 00:55:56;;;;;;;10.93;6.80;;;;;;;;;;5094922;28;20213;-54
2021/03/20 00:58:24;;;;;;;13.25;7.63;;;;;;;;;;5094862;28;20206;-56
2021/03/20 01:00:51;;;;;;;9.40;5.70;;;;;;;;;;5095314;28;20395;-47
2021/03/20 01:03:19;;;;;;;9.60;6.93;;;;;;;;;;5095649;28;20284;-53
2021/03/20 01:05:47;;;;;;;10.45;7.20;;;;;;;;;;5095541;28;20281;-54
2021/03/20 01:08:22;;;;;;;10.15;6.82;;;;;;;;;;5093051;28;20197;-49
2021/03/20 01:10:50;;;;;;;8.40;6.75;;;;;;;;;;5076104;28;20314;-49
2021/03/20 01:13:17;;;;;;;14.02;7.22;;;;;;;;;;5078358;28;20226;-50
2021/03/20 01:15:57;;;;;;;14.45;7.43;;;;;;;;;;5078281;28;20202;-49
2021/03/20 01:18:24;;;;;;;11.88;7.60;;;;;;;;;;5078522;28;20250;-51
2021/03/20 01:20:51;;;;;;;12.65;7.72;;;;;;;;;;5078446;28;20202;-50
2021/03/20 01:23:50;;;;;;;11.80;7.45;;;;;;;;;;5078317;28;20171;-53
2021/03/20 01:26:18;;;;;;;7.72;6.25;;;;;;;;;;5077914;28;20217;-49
2021/03/20 01:28:45;;;;;;;11.68;6.32;;;;;;;;;;5078069;28;20207;-58
2021/03/20 01:31:30;;;;;;;9.15;6.80;;;;;;;;;;5078502;28;20205;-53
2021/03/20 01:33:57;;;;;;;8.10;6.38;;;;;;;;;;5078607;28;20244;-54
2021/03/20 01:36:23;;;;;;;9.77;7.00;;;;;;;;;;5098391;28;20206;-56
2021/03/20 01:39:28;;;;;;;8.65;5.93;;;;;;;;;;5098194;28;20186;-55
2021/03/20 01:41:55;;;;;;;8.60;6.18;;;;;;;;;;5096273;28;20225;-53
2021/03/20 01:44:24;;;;;;;7.40;5.65;;;;;;;;;;5098143;28;20222;-50
2021/03/20 01:47:04;;;;;;;8.45;6.43;;;;;;;;;;5098642;28;20228;-49
2021/03/20 01:49:34;;;;;;;7.43;5.50;;;;;;;;;;5098206;28;20206;-53
2021/03/20 01:52:06;;;;;;;9.80;6.88;;;;;;;;;;5098144;28;20189;-57
2021/03/20 01:54:45;;;;;;;8.75;6.63;;;;;;;;;;5097606;28;20202;-50
2021/03/20 01:57:14;;;;;;;13.48;7.07;;;;;;;;;;5098011;28;20201;-53
2021/03/20 01:59:41;;;;;;;9.77;6.78;;;;;;;;;;5097844;28;20257;-52
2021/03/20 02:02:14;;;;;;;10.82;6.28;;;;;;;;;;5098357;28;20206;-55
2021/03/20 02:04:44;;;;;;;11.07;6.38;;;;;;;;;;5097792;28;20241;-53
2021/03/20 02:07:11;;;;;;;9.40;6.80;;;;;;;;;;5097514;28;20255;-52
2021/03/20 02:09:57;;;;;;;7.97;5.80;;;;;;;;;;5097958;28;20197;-51
2021/03/20 02:12:28;;;;;;;11.48;6.90;;;;;;;;;;5097388;28;20190;-54
2021/03/20 02:14:59;;;;;;;10.35;6.45;;;;;;;;;;5097730;28;20198;-52
2021/03/20 02:17:51;;;;;;;8.98;6.35;;;;;;;;;;5097347;28;20229;-49
2021/03/20 02:20:27;;;;;;;10.85;7.45;;;;;;;;;;5095632;28;20261;-52
2021/03/20 02:23:12;;;;;;;10.77;7.78;;;;;;;;;;5097740;28;20206;-51
2021/03/20 02:25:54;;;;;;;9.90;7.22;;;;;;;;;;5048326;28;20220;-52
2021/03/20 02:28:41;;;;;;;8.40;5.55;;;;;;;;;;5097530;28;20212;-55
2021/03/20 02:31:16;;;;;;;12.68;8.75;;;;;;;;;;5097603;28;20186;-49
2021/03/20 02:33:49;;;;;;;9.70;7.22;;;;;;;;;;5097706;28;20265;-49
2021/03/20 02:36:40;;;;;;;12.50;7.72;;;;;;;;;;5097412;28;20522;-52
2021/03/20 02:39:10;;;;;;;12.63;7.13;;;;;;;;;;5097254;28;20201;-53
2021/03/20 02:41:43;;;;;;;11.07;7.75;;;;;;;;;;5097795;28;20254;-51
2021/03/20 02:44:29;;;;;;;11.60;7.75;;;;;;;;;;5097078;28;20230;-48
2021/03/20 02:46:58;;;;;;;9.90;6.85;;;;;;;;;;5097181;28;20194;-51
2021/03/20 02:49:29;;;;;;;9.93;6.30;;;;;;;;;;5097203;28;20189;-54
2021/03/20 02:51:58;;;;;;;9.35;6.90;;;;;;;;;;5096815;28;20197;-55
2021/03/20 02:54:27;;;;;;;7.00;6.03;;;;;;;;;;5096811;28;20202;-51
2021/03/20 02:56:58;;;;;;;12.20;7.53;;;;;;;;;;5096994;28;20182;-52
2021/03/20 02:59:27;;;;;;;7.22;6.05;;;;;;;;;;5096744;28;20186;-53
2021/03/20 03:01:55;;;;;;;12.50;7.18;;;;;;;;;;5097088;28;20216;-54
2021/03/20 03:04:24;;;;;;;9.98;7.72;;;;;;;;;;5096559;28;20232;-52
2021/03/20 03:06:59;;;;;;;11.55;8.20;;;;;;;;;;5096386;28;20194;-53
2021/03/20 03:09:28;;;;;;;9.85;7.43;;;;;;;;;;5079562;28;20227;-53
2021/03/20 03:11:58;;;;;;;10.70;7.10;;;;;;;;;;5096761;28;20232;-51
2021/03/20 03:14:42;;;;;;;8.73;6.68;;;;;;;;;;5096108;28;20186;-49
2021/03/20 03:17:10;;;;;;;12.55;6.80;;;;;;;;;;5096318;28;20194;-53
2021/03/20 03:19:41;;;;;;;10.25;7.35;;;;;;;;;;5096545;28;20225;-52
2021/03/20 03:22:11;;;;;;;10.48;6.55;;;;;;;;;;5096710;28;20201;-50
2021/03/20 03:24:40;;;;;;;8.43;6.35;;;;;;;;;;5096395;28;20228;-53
2021/03/20 03:27:16;;;;;;;12.77;7.15;;;;;;;;;;5096809;28;20251;-54
2021/03/20 03:29:43;;;;;;;8.77;7.05;;;;;;;;;;5096493;28;20211;-53
2021/03/20 03:32:14;;;;;;;12.45;7.63;;;;;;;;;;5096468;28;20206;-52
2021/03/20 03:34:45;;;;;;;10.07;6.38;;;;;;;;;;5095849;28;20210;-52
2021/03/20 03:37:14;;;;;;;8.85;6.35;;;;;;;;;;5096445;28;20213;-54
2021/03/20 03:39:44;;;;;;;9.32;6.35;;;;;;;;;;5096572;28;20229;-54
2021/03/20 03:42:21;;;;;;;7.45;5.82;;;;;;;;;;5096329;28;20197;-53
2021/03/20 03:44:49;;;;;;;6.60;4.90;;;;;;;;;;5096790;28;20209;-47
2021/03/20 03:47:17;;;;;;;11.07;5.40;;;;;;;;;;5096065;28;20211;-54
2021/03/20 03:49:57;;;;;;;8.93;6.50;;;;;;;;;;5096305;28;20190;-54
2021/03/20 03:52:24;;;;;;;6.68;4.80;;;;;;;;;;5096199;28;20185;-51
2021/03/20 03:54:51;;;;;;;8.55;5.50;;;;;;;;;;5096025;28;20206;-51
2021/03/20 03:57:39;;;;;;;11.05;6.05;;;;;;;;;;5096572;28;20185;-55
2021/03/20 04:00:12;;;;;;;10.35;6.22;;;;;;;;;;5090668;28;20202;-49
2021/03/20 04:03:03;;;;;;;7.78;5.20;;;;;;;;;;5095947;28;20200;-54
2021/03/20 04:05:33;;;;;;;7.55;5.53;;;;;;;;;;5095670;28;20230;-54
2021/03/20 04:08:06;;;;;;;6.93;4.72;;;;;;;;;;5096137;28;20189;-54
2021/03/20 04:10:44;;;;;;;8.93;4.80;;;;;;;;;;5096208;28;20205;-53
2021/03/20 04:13:13;;;;;;;5.97;4.72;;;;;;;;;;5093961;28;20240;-53
2021/03/20 04:15:47;;;;;;;8.43;4.50;;;;;;;;;;5095982;28;20202;-55
2021/03/20 04:18:33;;;;;;;8.18;4.13;;;;;;;;;;5096000;28;20375;-55
2021/03/20 04:21:05;;;;;;;5.47;4.35;;;;;;;;;;5094403;28;20233;-53
2021/03/20 04:23:35;;;;;;;7.65;4.50;;;;;;;;;;5096045;28;20190;-54
2021/03/20 04:26:12;;;;;;;7.95;4.28;;;;;;;;;;5096104;28;20226;-56
2021/03/20 04:28:41;;;;;;;6.55;4.55;;;;;;;;;;5096835;28;20202;-53
2021/03/20 04:31:11;;;;;;;5.82;3.60;;;;;;;;;;5097064;28;20197;-53
2021/03/20 04:33:56;;;;;;;5.22;3.50;;;;;;;;;;5096655;28;20182;-57
2021/03/20 04:36:25;;;;;;;5.35;3.67;;;;;;;;;;5096720;28;20212;-53
2021/03/20 04:38:54;;;;;;;12.20;3.53;;;;;;;;;;5096345;28;20190;-55
2021/03/20 04:41:31;;;;;;;7.93;4.10;;;;;;;;;;5096251;28;20316;-53
2021/03/20 04:43:59;;;;;;;5.70;3.63;;;;;;;;;;5093780;28;20233;-52
2021/03/20 04:46:29;;;;;;;6.43;3.75;;;;;;;;;;5097622;28;20186;-55
2021/03/20 04:49:07;;;;;;;5.78;4.35;;;;;;;;;;5099977;28;20220;-56
2021/03/20 04:51:36;;;;;;;5.13;2.90;;;;;;;;;;5099730;28;20194;-51
2021/03/20 04:54:09;;;;;;;6.68;3.90;;;;;;;;;;5100513;28;20201;-52
2021/03/20 04:56:48;;;;;;;5.85;3.60;;;;;;;;;;5099593;28;20186;-59
2021/03/20 04:59:22;;;;;;;4.90;3.17;;;;;;;;;;5100275;28;20440;-52
2021/03/20 05:01:49;;;;;;;5.43;3.55;;;;;;;;;;5099719;28;20199;-54
2021/03/20 05:04:22;;;;;;;5.10;3.38;;;;;;;;;;5099525;28;20222;-45
2021/03/20 05:06:51;;;;;;;4.90;2.97;;;;;;;;;;5099337;28;20190;-56
2021/03/20 05:09:27;;;;;;;7.68;3.22;;;;;;;;;;5100020;28;20206;-53
2021/03/20 05:11:56;;;;;;;5.38;3.05;;;;;;;;;;5099472;28;20228;-53
2021/03/20 05:14:26;;;;;;;5.82;3.55;;;;;;;;;;5099931;28;20193;-50
2021/03/20 05:17:13;;;;;;;5.75;3.17;;;;;;;;;;5099492;28;20206;-55
2021/03/20 05:19:40;;;;;;;6.00;3.55;;;;;;;;;;5099317;28;20194;-55
2021/03/20 05:22:07;;;;;;;5.22;3.28;;;;;;;;;;5099458;28;20194;-54
2021/03/20 05:24:35;;;;;;;5.38;3.47;;;;;;;;;;5099257;28;20236;-51
2021/03/20 05:27:03;;;;;;;6.28;3.10;;;;;;;;;;5099147;28;20216;-53
2021/03/20 05:29:30;;;;;;;5.13;3.10;;;;;;;;;;5098257;28;20208;-56
2021/03/20 05:32:05;;;;;;;5.45;2.75;;;;;;;;;;5087116;28;20205;-56
2021/03/20 05:34:33;;;;;;;4.47;2.40;;;;;;;;;;5099180;28;20200;-59
2021/03/20 05:37:19;;;;;;;4.35;2.17;;;;;;;;;;5099226;28;20194;-51
2021/03/20 05:39:47;;;;;;;3.90;2.40;;;;;;;;;;5099472;28;20198;-56
2021/03/20 05:42:35;;;;;;;5.05;2.97;;;;;;;;;;5098968;28;20181;-50
2021/03/20 05:45:06;;;;;;;5.40;2.70;;;;;;;;;;5074181;28;20230;-53
2021/03/20 05:48:04;;;;;;;5.40;3.15;;;;;;;;;;5092337;28;20193;-53
2021/03/20 05:50:37;;;;;;;8.20;3.20;;;;;;;;;;5088587;28;20216;-58
2021/03/20 05:53:14;;;;;;;6.43;3.05;;;;;;;;;;5098850;28;20248;-58
2021/03/20 06:01:52;;;;;;;4.97;3.15;;;;;;;;;;5096778;28;20252;-58
2021/03/20 06:04:40;;;;;;;5.50;3.35;;;;;;;;;;5098937;28;20209;-49
2021/03/20 06:07:27;;;;;;;6.45;2.90;;;;;;;;;;5092184;28;20206;-51
2021/03/20 06:13:19;;;;;;;6.47;2.70;;;;;;;;;;5098773;28;20188;-52
2021/03/20 06:15:55;;;;;;;14.85;3.85;;;;;;;;;;5104665;28;20205;-63
2021/03/20 06:21:29;;;;;;;6.47;3.28;;;;;;;;;;5099049;28;20208;-60
2021/03/20 06:24:17;;;;;;;9.48;2.78;;;;;;;;;;5103239;28;20185;-60
2021/03/20 06:27:03;;;;;;;5.10;3.38;;;;;;;;;;5094238;28;20201;-50
2021/03/20 06:29:32;;;;;;;7.47;3.70;;;;;;;;;;5096725;28;20209;-56
2021/03/20 06:32:06;;;;;;;7.47;3.83;;;;;;;;;;5098190;28;20200;-56
2021/03/20 06:34:40;;;;;;;6.13;2.85;;;;;;;;;;5098250;28;20194;-59
2021/03/20 06:37:15;;;;;;;8.73;4.20;;;;;;;;;;5096539;28;20281;-52
2021/03/20 06:39:44;;;;;;;8.95;5.38;;;;;;;;;;5097920;28;20189;-53
2021/03/20 06:42:31;;;;;;;11.77;5.95;;;;;;;;;;5098058;28;20217;-53
2021/03/20 06:45:00;;;;;;;10.52;6.18;;;;;;;;;;5090583;28;20225;-50
2021/03/20 06:47:30;;;;;;;15.52;5.05;;;;;;;;;;5098098;28;20185;-59
2021/03/20 06:50:23;;;;;;;7.80;3.80;;;;;;;;;;5097866;28;20202;-55
2021/03/20 06:52:51;;;;;;;8.77;4.40;;;;;;;;;;5095850;28;20218;-55
2021/03/20 06:55:23;;;;;;;9.75;4.82;;;;;;;;;;5097008;28;20186;-54
2021/03/20 06:58:00;;;;;;;6.63;3.40;;;;;;;;;;5097285;28;20198;-52
2021/03/20 07:00:28;;;;;;;6.13;3.75;;;;;;;;;;5097423;28;20286;-57
2021/03/20 07:03:02;;;;;;;6.05;3.58;;;;;;;;;;5097630;28;20201;-53
2021/03/20 07:05:31;;;;;;;5.88;2.95;;;;;;;;;;5094699;28;20217;-56
2021/03/20 07:08:04;;;;;;;10.88;2.90;;;;;;;;;;5097076;28;20213;-54
2021/03/20 07:10:42;;;;;;;5.57;3.10;;;;;;;;;;5097487;28;20208;-58
2021/03/20 07:13:16;;;;;;;5.22;2.88;;;;;;;;;;5097631;28;20254;-57
2021/03/20 07:15:43;;;;;;;6.43;3.42;;;;;;;;;;5097507;28;20299;-58
2021/03/20 07:18:31;;;;;;;8.35;3.28;;;;;;;;;;5097120;28;20193;-57
2021/03/20 07:20:59;;;;;;;6.25;3.20;;;;;;;;;;5097192;28;20190;-55
2021/03/20 07:23:27;;;;;;;7.82;3.38;;;;;;;;;;5096701;28;20182;-56
2021/03/20 07:25:54;;;;;;;5.82;3.20;;;;;;;;;;5097217;28;20290;-57
2021/03/20 07:28:23;;;;;;;5.57;3.58;;;;;;;;;;5097141;28;20197;-55
2021/03/20 07:31:19;;;;;;;7.75;3.97;;;;;;;;;;5096794;28;20225;-59
2021/03/20 07:33:48;;;;;;;6.53;3.20;;;;;;;;;;5096315;28;20216;-56
2021/03/20 07:36:29;;;;;;;4.75;3.08;;;;;;;;;;5085166;28;20198;-57
2021/03/20 07:39:11;;;;;;;10.63;5.47;;;;;;;;;;5074770;28;20194;-57
2021/03/20 07:41:47;;;;;;;6.72;4.35;;;;;;;;;;5059414;28;20186;-59
2021/03/20 07:44:14;;;;;;;4.90;2.85;;;;;;;;;;5078473;28;20202;-55
2021/03/20 07:46:55;;;;;;;7.47;4.03;;;;;;;;;;5096426;28;20186;-56
2021/03/20 07:49:28;;;;;;;5.97;4.50;;;;;;;;;;5096343;28;20213;-57
2021/03/20 07:51:56;;;;;;;5.72;3.60;;;;;;;;;;5096683;28;20196;-55
2021/03/20 07:54:35;;;;;;;6.53;3.90;;;;;;;;;;5096093;28;20185;-59
2021/03/20 07:57:10;;;;;;;5.80;3.75;;;;;;;;;;5080404;28;20218;-56
2021/03/20 07:59:43;;;;;;;6.10;3.60;;;;;;;;;;5069229;28;20225;-55
2021/03/20 08:02:12;;;;;;;4.82;4.13;;;;;;;;;;5056741;28;20256;-57
2021/03/20 08:04:51;;;;;;;8.88;4.10;;;;;;;;;;5056520;28;20246;-59
2021/03/20 08:07:57;;;;;;;5.55;3.90;;;;;;;;;;5056514;28;20171;-54
2021/03/20 08:10:27;;;;;;;7.82;3.63;;;;;;;;;;5068047;28;20206;-57
2021/03/20 08:13:05;;;;;;;7.93;3.80;;;;;;;;;;5075527;28;20214;-60
2021/03/20 08:15:51;;;;;;;4.68;3.40;;;;;;;;;;5075098;28;20206;-54
2021/03/20 08:18:19;;;;;;;5.03;3.75;;;;;;;;;;5073845;28;20230;-56
2021/03/20 08:20:58;;;;;;;7.70;3.97;;;;;;;;;;5078481;28;20212;-52
2021/03/20 08:23:51;;;;;;;5.35;3.40;;;;;;;;;;5079830;28;20209;-59
2021/03/20 08:26:23;;;;;;;9.35;3.88;;;;;;;;;;5090749;28;20246;-52
2021/03/20 08:28:55;;;;;;;6.10;3.50;;;;;;;;;;5099346;28;20205;-57
2021/03/20 08:31:28;;;;;;;6.75;4.10;;;;;;;;;;5099428;28;20215;-57
2021/03/20 08:33:59;;;;;;;7.25;3.10;;;;;;;;;;5100307;28;20200;-53
2021/03/20 08:36:49;;;;;;;7.25;3.25;;;;;;;;;;5099947;28;20186;-54
2021/03/20 08:39:25;;;;;;;7.03;4.00;;;;;;;;;;5080039;28;20199;-58
2021/03/20 08:41:56;;;;;;;7.65;3.40;;;;;;;;;;5079329;28;20170;-51
2021/03/20 08:47:32;;;;;;;6.65;3.60;;;;;;;;;;5079825;28;20217;-56
2021/03/20 08:50:06;;;;;;;4.50;3.35;;;;;;;;;;5079606;28;20186;-58
2021/03/20 08:52:36;;;;;;;6.22;3.92;;;;;;;;;;5079031;28;20211;-52
2021/03/20 08:55:17;;;;;;;6.13;3.92;;;;;;;;;;5081520;28;20194;-59
2021/03/20 08:57:49;;;;;;;8.15;3.80;;;;;;;;;;5078950;28;20213;-53
2021/03/20 09:00:20;;;;;;;8.25;4.60;;;;;;;;;;5079339;28;20198;-55
2021/03/20 09:02:48;;;;;;;5.82;3.60;;;;;;;;;;5078917;28;20171;-51
2021/03/20 09:05:21;;;;;;;7.82;4.15;;;;;;;;;;5079011;28;20222;-55
2021/03/20 09:07:51;;;;;;;5.72;3.50;;;;;;;;;;5078893;28;20203;-55
2021/03/20 09:10:21;;;;;;;5.82;3.90;;;;;;;;;;5077739;28;20214;-51
2021/03/20 09:13:18;;;;;;;6.78;3.60;;;;;;;;;;5077918;28;20202;-54
2021/03/20 09:15:48;;;;;;;5.60;3.55;;;;;;;;;;5077727;28;20227;-53
2021/03/20 09:18:16;;;;;;;5.32;4.03;;;;;;;;;;5078139;28;20238;-56
2021/03/20 09:20:47;;;;;;;10.20;3.38;;;;;;;;;;5086576;28;20202;-56
2021/03/20 09:23:25;;;;;;;5.70;3.90;;;;;;;;;;5063470;28;20254;-53
2021/03/20 09:25:55;;;;;;;6.03;3.85;;;;;;;;;;5098260;28;20274;-55
2021/03/20 09:28:29;;;;;;;6.30;4.07;;;;;;;;;;5098396;28;20197;-55
2021/03/20 09:30:58;;;;;;;6.03;4.03;;;;;;;;;;5098270;28;20197;-51
2021/03/20 09:33:47;;;;;;;4.28;3.25;;;;;;;;;;5097578;28;20297;-58
2021/03/20 09:36:29;;;;;;;5.03;3.67;;;;;;;;;;5098200;28;20182;-54
2021/03/20 09:38:58;;;;;;;6.35;3.92;;;;;;;;;;5097662;28;20216;-52
2021/03/20 09:41:58;;;;;;;12.23;5.40;;;;;;;;;;5098319;28;20247;-54
2021/03/20 09:44:27;;;;;;;4.82;3.70;;;;;;;;;;5094621;28;20221;-54
2021/03/20 09:46:56;;;;;;;5.20;3.17;;;;;;;;;;5097480;28;20189;-58
2021/03/20 09:49:55;;;;;;;4.32;3.42;;;;;;;;;;5097763;28;20217;-57
2021/03/20 09:52:36;;;;;;;5.80;3.72;;;;;;;;;;5096223;28;20221;-47
2021/03/20 09:55:21;;;;;;;4.65;3.00;;;;;;;;;;5098380;28;20189;-53
2021/03/20 09:57:53;;;;;;;7.18;3.97;;;;;;;;;;5075758;28;20197;-57
2021/03/20 10:00:40;;;;;;;4.80;3.10;;;;;;;;;;5094594;28;20201;-53
2021/03/20 10:03:09;;;;;;;5.93;3.90;;;;;;;;;;5078115;28;20268;-57
2021/03/20 10:08:42;;;;;;;5.88;4.57;;;;;;;;;;5084066;28;20296;-55
2021/03/20 10:11:28;;;;;;;7.40;4.22;;;;;;;;;;5092380;28;20272;-59
2021/03/20 10:13:56;;;;;;;7.93;4.28;;;;;;;;;;5091940;28;20358;-54
2021/03/20 10:16:23;;;;;;;7.78;4.55;;;;;;;;;;5087523;28;20206;-56
2021/03/20 10:18:59;;;;;;;6.90;3.75;;;;;;;;;;5096758;28;20217;-56
2021/03/20 10:21:54;;;;;;;6.55;3.83;;;;;;;;;;5094914;28;20188;-57
2021/03/20 10:24:24;;;;;;;5.63;3.53;;;;;;;;;;5089504;28;20198;-57
2021/03/20 10:32:56;;;;;;;6.47;4.25;;;;;;;;;;5094971;28;20284;-49
2021/03/20 10:35:24;;;;;;;5.70;3.33;;;;;;;;;;5096013;28;20190;-59
2021/03/20 10:41:00;;;;;;;6.05;3.35;;;;;;;;;;5090222;28;20255;-59
2021/03/20 10:43:28;;;;;;;5.95;2.58;;;;;;;;;;5071083;28;20183;-54
2021/03/20 10:46:17;;;;;;;5.40;3.10;;;;;;;;;;5064938;28;20214;-58
2021/03/20 10:48:44;;;;;;;5.95;2.90;;;;;;;;;;5068877;28;20210;-54
2021/03/20 10:51:16;;;;;;;6.70;4.05;;;;;;;;;;5064680;28;20194;-50
2021/03/20 10:53:52;;;;;;;4.45;3.20;;;;;;;;;;5075041;28;20191;-54
2021/03/20 10:56:29;;;;;;;5.13;3.30;;;;;;;;;;5067453;28;20213;-53
2021/03/20 10:58:56;;;;;;;8.88;3.28;;;;;;;;;;5075714;28;20206;-53
2021/03/20 11:01:31;;;;;;;6.20;3.10;;;;;;;;;;5076166;28;20232;-58
2021/03/20 11:03:59;;;;;;;3.58;2.25;;;;;;;;;;5075810;28;20190;-54
2021/03/20 11:06:27;;;;;;;6.50;3.15;;;;;;;;;;5061587;28;20230;-57
2021/03/20 11:12:02;;;;;;;6.03;2.70;;;;;;;;;;5065640;28;20205;-58
2021/03/20 11:14:29;;;;;;;4.10;2.80;;;;;;;;;;5070359;28;20187;-54
2021/03/20 11:17:01;;;;;;;3.45;2.10;;;;;;;;;;5076825;28;20206;-57
2021/03/20 11:19:29;;;;;;;6.40;2.90;;;;;;;;;;5075655;28;20203;-49
2021/03/20 11:22:00;;;;;;;9.20;2.72;;;;;;;;;;5075956;28;20182;-52
2021/03/20 11:24:56;;;;;;;5.10;2.83;;;;;;;;;;5076248;28;20207;-53
2021/03/20 11:27:25;;;;;;;4.50;2.85;;;;;;;;;;5056187;28;20195;-55
2021/03/20 11:29:58;;;;;;;6.03;3.03;;;;;;;;;;5071693;28;20567;-59
2021/03/20 11:32:28;;;;;;;6.30;2.92;;;;;;;;;;5069954;28;20196;-58
2021/03/20 11:35:02;;;;;;;4.32;2.58;;;;;;;;;;5068288;28;20205;-58
2021/03/20 11:37:31;;;;;;;4.28;2.47;;;;;;;;;;5076027;28;20185;-60
2021/03/20 11:40:17;;;;;;;4.65;2.88;;;;;;;;;;5076134;28;20187;-57
2021/03/20 11:42:43;;;;;;;8.77;2.42;;;;;;;;;;5035341;28;20216;-58
2021/03/20 11:45:17;;;;;;;4.43;2.20;;;;;;;;;;5034739;28;20232;-54
2021/03/20 11:47:48;;;;;;;6.63;3.25;;;;;;;;;;5043642;28;20199;-56
2021/03/20 11:50:16;;;;;;;4.22;2.70;;;;;;;;;;5043690;28;20208;-50
2021/03/20 11:52:51;;;;;;;5.07;3.35;;;;;;;;;;5035180;28;20271;-57
2021/03/20 11:58:25;;;;;;;8.23;2.60;;;;;;;;;;5034148;28;20171;-55
2021/03/20 12:00:52;;;;;;;5.72;2.50;;;;;;;;;;5046167;28;20249;-57
2021/03/20 12:03:35;;;;;;;6.93;2.42;;;;;;;;;;5053843;28;20195;-52
2021/03/20 12:06:24;;;;;;;5.13;2.35;;;;;;;;;;5050083;28;20235;-52
2021/03/20 12:08:54;;;;;;;6.05;3.00;;;;;;;;;;5034226;28;20196;-54
2021/03/20 12:11:27;;;;;;;10.38;2.75;;;;;;;;;;5055005;28;20196;-58
2021/03/20 12:13:55;;;;;;;4.88;2.10;;;;;;;;;;5055300;28;20188;-56
2021/03/20 12:19:29;;;;;;;6.38;2.90;;;;;;;;;;5069491;28;20224;-56
2021/03/20 12:22:17;;;;;;;4.18;1.88;;;;;;;;;;5094654;28;20252;-53
2021/03/20 12:27:45;;;;;;;4.80;2.55;;;;;;;;;;5092875;28;20224;-57
2021/03/20 12:30:25;;;;;;;8.80;3.13;;;;;;;;;;5081479;28;20186;-58
2021/03/20 12:33:15;;;;;;;8.50;2.00;;;;;;;;;;5092244;28;20243;-54
2021/03/20 12:36:35;;;;;;;4.20;2.60;;;;;;;;;;5094266;28;20190;-58
2021/03/20 12:39:05;;;;;;;6.88;2.83;;;;;;;;;;5094929;28;20228;-51
2021/03/20 12:41:32;;;;;;;7.60;4.07;;;;;;;;;;5093597;28;20268;-50
2021/03/20 12:44:05;;;;;;;5.47;2.33;;;;;;;;;;5091875;28;20206;-55
2021/03/20 12:46:33;;;;;;;5.10;2.03;;;;;;;;;;5076973;28;20219;-58
2021/03/20 12:49:02;;;;;;;5.00;2.20;;;;;;;;;;5088622;28;20262;-58
2021/03/20 12:54:35;;;;;;;7.30;3.53;;;;;;;;;;5104978;28;20193;-56
2021/03/20 12:57:13;;;;;;;5.57;2.38;;;;;;;;;;5087690;28;20212;-54
2021/03/20 13:00:08;;;;;;;5.88;2.22;;;;;;;;;;5093905;28;20223;-57
2021/03/20 13:02:57;;;;;;;3.25;1.88;;;;;;;;;;5095618;28;20202;-52
2021/03/20 13:05:27;;;;;;;3.80;2.03;;;;;;;;;;5091076;28;20238;-57
2021/03/20 13:07:55;;;;;;;4.38;2.13;;;;;;;;;;5096923;28;20266;-59
2021/03/20 13:10:27;;;;;;;3.10;1.85;;;;;;;;;;5098498;28;20193;-48
2021/03/20 13:12:54;;;;;;;4.18;2.10;;;;;;;;;;5098415;28;20183;-58
2021/03/20 13:15:23;;;;;;;5.13;2.15;;;;;;;;;;5100226;28;20192;-55
2021/03/20 13:18:06;;;;;;;9.45;2.20;;;;;;;;;;5098127;28;20210;-58
2021/03/20 13:20:34;;;;;;;6.70;1.80;;;;;;;;;;5097549;28;20231;-59
2021/03/20 13:23:01;;;;;;;6.95;2.40;;;;;;;;;;5098188;28;20185;-59
2021/03/20 13:25:37;;;;;;;5.47;2.20;;;;;;;;;;5097858;28;20223;-54
2021/03/20 13:28:14;;;;;;;3.45;1.98;;;;;;;;;;5095258;28;20205;-54
2021/03/20 13:30:42;;;;;;;3.28;1.90;;;;;;;;;;5096912;28;20236;-58
2021/03/20 13:36:15;;;;;;;3.97;2.25;;;;;;;;;;5093142;28;20221;-56
2021/03/20 13:38:43;;;;;;;5.30;1.83;;;;;;;;;;5097016;28;20202;-56
2021/03/20 13:41:10;;;;;;;4.78;2.00;;;;;;;;;;5094085;28;20198;-57
2021/03/20 13:43:37;;;;;;;3.97;2.10;;;;;;;;;;5095829;28;20186;-53
2021/03/20 13:46:40;;;;;;;4.45;2.15;;;;;;;;;;5096315;28;20214;-57
2021/03/20 13:49:14;;;;;;;3.63;1.83;;;;;;;;;;5088369;28;20186;-59
2021/03/20 13:51:47;;;;;;;5.15;2.20;;;;;;;;;;5096054;28;20194;-55
2021/03/20 13:54:17;;;;;;;3.83;1.52;;;;;;;;;;5075695;28;20214;-53
2021/03/20 13:56:44;;;;;;;4.60;1.70;;;;;;;;;;5094522;28;20236;-56
2021/03/20 13:59:13;;;;;;;5.68;2.22;;;;;;;;;;5096518;28;20205;-58
2021/03/20 14:01:45;;;;;;;3.75;1.70;;;;;;;;;;5096813;28;20346;-57
2021/03/20 14:04:12;;;;;;;3.30;1.67;;;;;;;;;;5095443;28;20255;-54
2021/03/20 14:06:39;;;;;;;4.22;1.60;;;;;;;;;;5096220;28;20213;-58
2021/03/20 14:09:14;;;;;;;2.45;1.15;;;;;;;;;;5096464;28;20204;-57
2021/03/20 14:11:42;;;;;;;6.90;2.20;;;;;;;;;;5093389;28;20217;-57
2021/03/20 14:14:11;;;;;;;8.30;2.20;;;;;;;;;;5095729;28;20229;-57
2021/03/20 14:16:39;;;;;;;3.40;1.60;;;;;;;;;;5091533;28;20224;-54
2021/03/20 14:19:07;;;;;;;4.38;1.70;;;;;;;;;;5096294;28;20190;-60
2021/03/20 14:21:34;;;;;;;4.20;2.00;;;;;;;;;;5096033;28;20190;-54
2021/03/20 14:24:21;;;;;;;5.80;2.30;;;;;;;;;;5096427;28;20209;-51
2021/03/20 14:26:48;;;;;;;3.15;1.70;;;;;;;;;;5096100;28;20223;-55
2021/03/20 14:29:20;;;;;;;3.35;1.50;;;;;;;;;;5078589;28;20203;-56
2021/03/20 14:31:46;;;;;;;4.63;1.77;;;;;;;;;;5088843;28;20194;-50
2021/03/20 14:34:15;;;;;;;3.28;1.85;;;;;;;;;;5077606;28;20191;-54
2021/03/20 14:37:06;;;;;;;4.60;1.67;;;;;;;;;;5076111;28;20191;-53
2021/03/20 14:39:38;;;;;;;4.22;2.22;;;;;;;;;;5076817;28;20202;-56
2021/03/20 14:42:07;;;;;;;5.55;1.80;;;;;;;;;;5089795;28;20197;-57
2021/03/20 14:44:46;;;;;;;3.70;1.70;;;;;;;;;;5074312;28;20194;-53
2021/03/20 14:47:13;;;;;;;3.55;2.08;;;;;;;;;;5095543;28;20206;-57
2021/03/20 14:49:40;;;;;;;6.55;2.50;;;;;;;;;;5085174;28;20201;-57
2021/03/20 14:52:13;;;;;;;5.60;2.35;;;;;;;;;;5095825;28;20198;-51
2021/03/20 14:54:42;;;;;;;3.45;2.08;;;;;;;;;;5095180;28;20201;-59
2021/03/20 14:57:09;;;;;;;3.70;1.70;;;;;;;;;;5095480;28;20201;-48
2021/03/20 15:02:41;;;;;;;5.85;2.00;;;;;;;;;;5093494;28;20316;-52
2021/03/20 15:05:11;;;;;;;3.40;1.30;;;;;;;;;;5091464;28;20264;-56
2021/03/20 15:07:58;;;;;;;5.80;2.50;;;;;;;;;;5088792;28;20202;-55
2021/03/20 15:10:28;;;;;;;11.15;2.72;;;;;;;;;;5081999;28;20262;-57
2021/03/20 15:12:55;;;;;;;6.55;1.67;;;;;;;;;;5084172;28;20198;-54
2021/03/20 15:15:47;;;;;;;7.40;3.00;;;;;;;;;;5100147;28;20189;-53
2021/03/20 15:18:24;;;;;;;6.35;2.53;;;;;;;;;;5086849;28;20190;-62
2021/03/20 15:20:52;;;;;;;5.85;3.28;;;;;;;;;;5082202;28;20189;-51
2021/03/20 15:23:20;;;;;;;5.28;3.05;;;;;;;;;;5090288;28;20199;-56
2021/03/20 15:25:49;;;;;;;3.47;2.30;;;;;;;;;;5094823;28;20288;-57
2021/03/20 15:28:15;;;;;;;4.72;2.60;;;;;;;;;;5094901;28;20221;-52
2021/03/20 15:30:44;;;;;;;4.07;1.75;;;;;;;;;;5094804;28;20278;-56
2021/03/20 15:33:12;;;;;;;4.22;2.70;;;;;;;;;;5095162;28;20260;-53
2021/03/20 15:35:41;;;;;;;3.85;1.60;;;;;;;;;;5092310;28;20212;-56
2021/03/20 15:38:14;;;;;;;2.60;1.27;;;;;;;;;;5085840;28;20230;-60
2021/03/20 15:40:43;;;;;;;6.70;2.75;;;;;;;;;;5092299;28;20471;-57
2021/03/20 15:43:12;;;;;;;4.78;2.10;;;;;;;;;;5094878;28;20216;-57
2021/03/20 15:45:42;;;;;;;3.72;1.90;;;;;;;;;;5095330;28;20271;-56
2021/03/20 15:48:14;;;;;;;8.80;4.50;;;;;;;;;;5089705;28;20322;-56
2021/03/20 15:50:43;;;;;;;9.65;5.60;;;;;;;;;;5092840;28;20202;-57
2021/03/20 15:53:21;;;;;;;8.93;3.47;;;;;;;;;;5095031;28;20254;-59
2021/03/20 15:55:49;;;;;;;5.07;2.30;;;;;;;;;;5075834;28;20194;-47
2021/03/20 16:01:22;;;;;;;3.97;2.03;;;;;;;;;;5086888;28;20655;-52
2021/03/20 16:04:04;;;;;;;4.70;2.60;;;;;;;;;;5074506;28;20217;-53
2021/03/20 16:06:52;;;;;;;5.35;2.95;;;;;;;;;;5094331;28;20217;-55
2021/03/20 16:09:20;;;;;;;7.22;3.50;;;;;;;;;;5076282;28;20226;-52
2021/03/20 16:11:47;;;;;;;6.75;3.03;;;;;;;;;;5080645;28;20174;-53
2021/03/20 16:14:26;;;;;;;4.72;2.20;;;;;;;;;;5092545;28;20490;-55